sensor_id;sensor_type;location;lat;lon;timestamp;pressure;altitude;pressure_sealevel;temperature
34023;BMP280;20673;48.980;8.138;2023-08-08T00:00:18;100242.96;;;14.62
34023;BMP280;20673;48.980;8.138;2023-08-08T00:02:44;100241.08;;;14.63
34023;BMP280;20673;48.980;8.138;2023-08-08T00:05:10;100251.14;;;14.69
34023;BMP280;20673;48.980;8.138;2023-08-08T00:07:36;100246.22;;;14.67
34023;BMP280;20673;48.980;8.138;2023-08-08T00:10:02;100245.13;;;14.66
34023;BMP280;20673;48.980;8.138;2023-08-08T00:12:29;100237.40;;;14.67
34023;BMP280;20673;48.980;8.138;2023-08-08T00:14:55;100248.81;;;14.66
34023;BMP280;20673;48.980;8.138;2023-08-08T00:17:21;100237.42;;;14.72
34023;BMP280;20673;48.980;8.138;2023-08-08T00:19:47;100239.04;;;14.76
34023;BMP280;20673;48.980;8.138;2023-08-08T00:22:13;100240.00;;;14.80
34023;BMP280;20673;48.980;8.138;2023-08-08T00:24:39;100230.25;;;14.82
34023;BMP280;20673;48.980;8.138;2023-08-08T00:27:06;100228.29;;;14.84
34023;BMP280;20673;48.980;8.138;2023-08-08T00:29:32;100231.97;;;14.85
34023;BMP280;20673;48.980;8.138;2023-08-08T00:31:58;100233.84;;;14.84
34023;BMP280;20673;48.980;8.138;2023-08-08T00:34:24;100229.21;;;14.83
34023;BMP280;20673;48.980;8.138;2023-08-08T00:36:51;100225.40;;;14.83
34023;BMP280;20673;48.980;8.138;2023-08-08T00:39:17;100220.26;;;14.82
34023;BMP280;20673;48.980;8.138;2023-08-08T00:41:43;100221.44;;;14.77
34023;BMP280;20673;48.980;8.138;2023-08-08T00:44:10;100219.94;;;14.71
34023;BMP280;20673;48.980;8.138;2023-08-08T00:46:36;100223.54;;;14.69
34023;BMP280;20673;48.980;8.138;2023-08-08T00:49:02;100223.58;;;14.70
34023;BMP280;20673;48.980;8.138;2023-08-08T00:51:29;100219.79;;;14.62
34023;BMP280;20673;48.980;8.138;2023-08-08T00:53:56;100218.08;;;14.59
34023;BMP280;20673;48.980;8.138;2023-08-08T00:56:23;100216.00;;;14.45
34023;BMP280;20673;48.980;8.138;2023-08-08T00:58:49;100215.47;;;14.39
34023;BMP280;20673;48.980;8.138;2023-08-08T01:01:17;100216.14;;;14.30
34023;BMP280;20673;48.980;8.138;2023-08-08T01:03:45;100215.89;;;14.26
34023;BMP280;20673;48.980;8.138;2023-08-08T01:06:31;100219.26;;;14.19
34023;BMP280;20673;48.980;8.138;2023-08-08T01:09:03;100219.98;;;14.12
34023;BMP280;20673;48.980;8.138;2023-08-08T01:11:33;100217.05;;;14.12
34023;BMP280;20673;48.980;8.138;2023-08-08T01:14:02;100213.33;;;14.08
34023;BMP280;20673;48.980;8.138;2023-08-08T01:16:30;100208.15;;;14.02
34023;BMP280;20673;48.980;8.138;2023-08-08T01:18:56;100212.83;;;14.02
34023;BMP280;20673;48.980;8.138;2023-08-08T01:21:27;100215.58;;;13.99
34023;BMP280;20673;48.980;8.138;2023-08-08T01:26:45;100211.95;;;14.00
34023;BMP280;20673;48.980;8.138;2023-08-08T01:29:11;100213.15;;;14.01
34023;BMP280;20673;48.980;8.138;2023-08-08T01:31:37;100217.80;;;14.12
34023;BMP280;20673;48.980;8.138;2023-08-08T01:34:04;100215.04;;;14.18
34023;BMP280;20673;48.980;8.138;2023-08-08T01:36:39;100214.38;;;14.20
34023;BMP280;20673;48.980;8.138;2023-08-08T01:39:08;100217.18;;;14.20
34023;BMP280;20673;48.980;8.138;2023-08-08T01:41:38;100217.14;;;14.22
34023;BMP280;20673;48.980;8.138;2023-08-08T01:44:06;100214.04;;;14.21
34023;BMP280;20673;48.980;8.138;2023-08-08T01:46:34;100217.76;;;14.21
34023;BMP280;20673;48.980;8.138;2023-08-08T01:49:02;100216.54;;;14.19
34023;BMP280;20673;48.980;8.138;2023-08-08T01:51:28;100214.63;;;14.25
34023;BMP280;20673;48.980;8.138;2023-08-08T01:53:54;100218.86;;;14.27
34023;BMP280;20673;48.980;8.138;2023-08-08T01:56:20;100213.87;;;14.29
34023;BMP280;20673;48.980;8.138;2023-08-08T01:58:47;100213.25;;;14.29
34023;BMP280;20673;48.980;8.138;2023-08-08T02:01:13;100213.97;;;14.29
34023;BMP280;20673;48.980;8.138;2023-08-08T02:03:39;100211.70;;;14.29
34023;BMP280;20673;48.980;8.138;2023-08-08T02:06:05;100207.31;;;14.37
34023;BMP280;20673;48.980;8.138;2023-08-08T02:08:31;100202.25;;;14.41
34023;BMP280;20673;48.980;8.138;2023-08-08T02:10:57;100198.58;;;14.44
34023;BMP280;20673;48.980;8.138;2023-08-08T02:13:23;100207.73;;;14.47
34023;BMP280;20673;48.980;8.138;2023-08-08T02:15:49;100196.93;;;14.45
34023;BMP280;20673;48.980;8.138;2023-08-08T02:18:15;100197.69;;;14.48
34023;BMP280;20673;48.980;8.138;2023-08-08T02:20:41;100199.11;;;14.50
34023;BMP280;20673;48.980;8.138;2023-08-08T02:23:07;100195.14;;;14.53
34023;BMP280;20673;48.980;8.138;2023-08-08T02:25:34;100194.33;;;14.55
34023;BMP280;20673;48.980;8.138;2023-08-08T02:28:00;100198.31;;;14.56
34023;BMP280;20673;48.980;8.138;2023-08-08T02:30:26;100205.92;;;14.62
34023;BMP280;20673;48.980;8.138;2023-08-08T02:32:58;100200.72;;;14.67
34023;BMP280;20673;48.980;8.138;2023-08-08T02:35:25;100203.73;;;14.67
34023;BMP280;20673;48.980;8.138;2023-08-08T02:37:51;100202.09;;;14.68
34023;BMP280;20673;48.980;8.138;2023-08-08T02:40:17;100203.26;;;14.71
34023;BMP280;20673;48.980;8.138;2023-08-08T02:42:43;100201.67;;;14.68
34023;BMP280;20673;48.980;8.138;2023-08-08T02:45:09;100199.22;;;14.67
34023;BMP280;20673;48.980;8.138;2023-08-08T02:47:35;100196.90;;;14.64
34023;BMP280;20673;48.980;8.138;2023-08-08T02:50:02;100197.92;;;14.63
34023;BMP280;20673;48.980;8.138;2023-08-08T02:52:28;100204.37;;;14.57
34023;BMP280;20673;48.980;8.138;2023-08-08T02:54:54;100207.26;;;14.57
34023;BMP280;20673;48.980;8.138;2023-08-08T02:57:20;100210.48;;;14.48
34023;BMP280;20673;48.980;8.138;2023-08-08T02:59:46;100207.97;;;14.48
34023;BMP280;20673;48.980;8.138;2023-08-08T03:02:12;100214.97;;;14.43
34023;BMP280;20673;48.980;8.138;2023-08-08T03:04:38;100214.72;;;14.40
34023;BMP280;20673;48.980;8.138;2023-08-08T03:07:04;100215.63;;;14.34
34023;BMP280;20673;48.980;8.138;2023-08-08T03:09:30;100210.70;;;14.29
34023;BMP280;20673;48.980;8.138;2023-08-08T03:11:56;100207.03;;;14.28
34023;BMP280;20673;48.980;8.138;2023-08-08T03:14:23;100207.36;;;14.23
34023;BMP280;20673;48.980;8.138;2023-08-08T03:16:49;100210.24;;;14.19
34023;BMP280;20673;48.980;8.138;2023-08-08T03:19:15;100204.68;;;14.22
34023;BMP280;20673;48.980;8.138;2023-08-08T03:21:41;100207.18;;;14.19
34023;BMP280;20673;48.980;8.138;2023-08-08T03:24:07;100210.36;;;14.16
34023;BMP280;20673;48.980;8.138;2023-08-08T03:26:33;100207.36;;;14.15
34023;BMP280;20673;48.980;8.138;2023-08-08T03:28:59;100207.90;;;14.12
34023;BMP280;20673;48.980;8.138;2023-08-08T03:31:25;100212.75;;;14.12
34023;BMP280;20673;48.980;8.138;2023-08-08T03:33:52;100208.36;;;14.14
34023;BMP280;20673;48.980;8.138;2023-08-08T03:36:18;100210.86;;;14.11
34023;BMP280;20673;48.980;8.138;2023-08-08T03:38:45;100208.65;;;14.10
34023;BMP280;20673;48.980;8.138;2023-08-08T03:41:12;100207.26;;;14.05
34023;BMP280;20673;48.980;8.138;2023-08-08T03:43:39;100201.97;;;14.05
34023;BMP280;20673;48.980;8.138;2023-08-08T03:46:06;100196.33;;;14.03
34023;BMP280;20673;48.980;8.138;2023-08-08T03:48:32;100196.70;;;14.02
34023;BMP280;20673;48.980;8.138;2023-08-08T03:50:58;100198.61;;;13.99
34023;BMP280;20673;48.980;8.138;2023-08-08T03:53:24;100199.90;;;13.95
34023;BMP280;20673;48.980;8.138;2023-08-08T03:55:50;100197.51;;;13.90
34023;BMP280;20673;48.980;8.138;2023-08-08T03:58:17;100195.98;;;13.85
34023;BMP280;20673;48.980;8.138;2023-08-08T04:00:43;100192.92;;;13.80
34023;BMP280;20673;48.980;8.138;2023-08-08T04:03:16;100195.22;;;13.82
34023;BMP280;20673;48.980;8.138;2023-08-08T04:05:46;100194.76;;;13.79
34023;BMP280;20673;48.980;8.138;2023-08-08T04:08:16;100200.47;;;13.76
34023;BMP280;20673;48.980;8.138;2023-08-08T04:10:45;100209.48;;;13.74
34023;BMP280;20673;48.980;8.138;2023-08-08T04:13:13;100221.61;;;13.74
34023;BMP280;20673;48.980;8.138;2023-08-08T04:15:39;100224.07;;;13.75
34023;BMP280;20673;48.980;8.138;2023-08-08T04:18:05;100221.11;;;13.74
34023;BMP280;20673;48.980;8.138;2023-08-08T04:20:34;100221.63;;;13.68
34023;BMP280;20673;48.980;8.138;2023-08-08T04:23:01;100226.86;;;13.71
34023;BMP280;20673;48.980;8.138;2023-08-08T04:25:27;100226.70;;;13.76
34023;BMP280;20673;48.980;8.138;2023-08-08T04:27:54;100224.48;;;13.75
34023;BMP280;20673;48.980;8.138;2023-08-08T04:30:20;100228.95;;;13.72
34023;BMP280;20673;48.980;8.138;2023-08-08T04:32:46;100231.25;;;13.71
34023;BMP280;20673;48.980;8.138;2023-08-08T04:35:12;100226.22;;;13.66
34023;BMP280;20673;48.980;8.138;2023-08-08T04:37:38;100223.29;;;13.63
34023;BMP280;20673;48.980;8.138;2023-08-08T04:40:06;100219.44;;;13.65
34023;BMP280;20673;48.980;8.138;2023-08-08T04:42:34;100215.86;;;13.64
34023;BMP280;20673;48.980;8.138;2023-08-08T04:45:00;100207.26;;;13.70
34023;BMP280;20673;48.980;8.138;2023-08-08T04:47:26;100209.65;;;13.73
34023;BMP280;20673;48.980;8.138;2023-08-08T04:49:52;100203.93;;;13.74
34023;BMP280;20673;48.980;8.138;2023-08-08T04:52:18;100207.36;;;13.75
34023;BMP280;20673;48.980;8.138;2023-08-08T04:54:44;100222.68;;;13.73
34023;BMP280;20673;48.980;8.138;2023-08-08T04:57:10;100225.93;;;13.73
34023;BMP280;20673;48.980;8.138;2023-08-08T04:59:36;100225.36;;;13.79
34023;BMP280;20673;48.980;8.138;2023-08-08T05:02:02;100224.54;;;13.83
34023;BMP280;20673;48.980;8.138;2023-08-08T05:04:30;100229.64;;;13.89
34023;BMP280;20673;48.980;8.138;2023-08-08T05:06:56;100226.06;;;13.96
34023;BMP280;20673;48.980;8.138;2023-08-08T05:09:23;100231.08;;;13.99
34023;BMP280;20673;48.980;8.138;2023-08-08T05:11:52;100225.61;;;14.04
34023;BMP280;20673;48.980;8.138;2023-08-08T05:14:18;100225.16;;;14.11
34023;BMP280;20673;48.980;8.138;2023-08-08T05:16:45;100228.50;;;14.13
34023;BMP280;20673;48.980;8.138;2023-08-08T05:19:12;100228.25;;;14.16
34023;BMP280;20673;48.980;8.138;2023-08-08T05:21:38;100233.39;;;14.20
34023;BMP280;20673;48.980;8.138;2023-08-08T05:24:04;100237.70;;;14.26
34023;BMP280;20673;48.980;8.138;2023-08-08T05:26:31;100236.07;;;14.30
34023;BMP280;20673;48.980;8.138;2023-08-08T05:28:57;100230.61;;;14.37
34023;BMP280;20673;48.980;8.138;2023-08-08T05:31:23;100230.89;;;14.43
34023;BMP280;20673;48.980;8.138;2023-08-08T05:33:49;100234.61;;;14.48
34023;BMP280;20673;48.980;8.138;2023-08-08T05:36:15;100227.92;;;14.54
34023;BMP280;20673;48.980;8.138;2023-08-08T05:38:41;100226.98;;;14.59
34023;BMP280;20673;48.980;8.138;2023-08-08T05:41:08;100227.44;;;14.66
34023;BMP280;20673;48.980;8.138;2023-08-08T05:43:34;100228.59;;;14.75
34023;BMP280;20673;48.980;8.138;2023-08-08T05:46:01;100230.22;;;14.82
34023;BMP280;20673;48.980;8.138;2023-08-08T05:48:27;100225.93;;;14.90
34023;BMP280;20673;48.980;8.138;2023-08-08T05:50:53;100225.53;;;14.99
34023;BMP280;20673;48.980;8.138;2023-08-08T05:53:19;100226.75;;;14.99
34023;BMP280;20673;48.980;8.138;2023-08-08T05:55:45;100226.83;;;15.12
34023;BMP280;20673;48.980;8.138;2023-08-08T05:58:11;100223.50;;;15.18
34023;BMP280;20673;48.980;8.138;2023-08-08T06:00:39;100222.36;;;15.29
34023;BMP280;20673;48.980;8.138;2023-08-08T06:03:05;100222.25;;;15.35
34023;BMP280;20673;48.980;8.138;2023-08-08T06:05:32;100220.28;;;15.46
34023;BMP280;20673;48.980;8.138;2023-08-08T06:07:58;100219.47;;;15.50
34023;BMP280;20673;48.980;8.138;2023-08-08T06:10:24;100225.53;;;15.61
34023;BMP280;20673;48.980;8.138;2023-08-08T06:12:51;100227.95;;;15.70
34023;BMP280;20673;48.980;8.138;2023-08-08T06:15:17;100228.18;;;15.78
34023;BMP280;20673;48.980;8.138;2023-08-08T06:17:44;100232.02;;;15.82
34023;BMP280;20673;48.980;8.138;2023-08-08T06:20:10;100227.72;;;15.93
34023;BMP280;20673;48.980;8.138;2023-08-08T06:22:37;100219.29;;;15.99
34023;BMP280;20673;48.980;8.138;2023-08-08T06:25:04;100220.76;;;16.10
34023;BMP280;20673;48.980;8.138;2023-08-08T06:27:30;100223.25;;;16.19
34023;BMP280;20673;48.980;8.138;2023-08-08T06:29:56;100223.97;;;16.28
34023;BMP280;20673;48.980;8.138;2023-08-08T06:32:22;100217.42;;;16.39
34023;BMP280;20673;48.980;8.138;2023-08-08T06:34:48;100220.21;;;16.46
34023;BMP280;20673;48.980;8.138;2023-08-08T06:37:14;100210.97;;;16.58
34023;BMP280;20673;48.980;8.138;2023-08-08T06:39:40;100213.70;;;16.64
34023;BMP280;20673;48.980;8.138;2023-08-08T06:42:08;100219.48;;;16.74
34023;BMP280;20673;48.980;8.138;2023-08-08T06:44:41;100217.61;;;16.77
34023;BMP280;20673;48.980;8.138;2023-08-08T06:47:07;100219.37;;;16.85
34023;BMP280;20673;48.980;8.138;2023-08-08T06:49:33;100224.90;;;16.89
34023;BMP280;20673;48.980;8.138;2023-08-08T06:52:00;100228.99;;;17.00
34023;BMP280;20673;48.980;8.138;2023-08-08T06:54:26;100223.04;;;17.05
34023;BMP280;20673;48.980;8.138;2023-08-08T06:56:54;100221.26;;;17.03
34023;BMP280;20673;48.980;8.138;2023-08-08T06:59:22;100221.68;;;17.03
34023;BMP280;20673;48.980;8.138;2023-08-08T07:01:49;100225.51;;;17.06
34023;BMP280;20673;48.980;8.138;2023-08-08T07:04:17;100222.57;;;17.17
34023;BMP280;20673;48.980;8.138;2023-08-08T07:06:44;100228.08;;;17.17
34023;BMP280;20673;48.980;8.138;2023-08-08T07:09:11;100221.44;;;17.34
34023;BMP280;20673;48.980;8.138;2023-08-08T07:11:37;100222.02;;;17.35
34023;BMP280;20673;48.980;8.138;2023-08-08T07:14:04;100226.96;;;17.46
34023;BMP280;20673;48.980;8.138;2023-08-08T07:16:30;100218.17;;;17.44
34023;BMP280;20673;48.980;8.138;2023-08-08T07:18:56;100218.84;;;17.60
34023;BMP280;20673;48.980;8.138;2023-08-08T07:21:22;100222.65;;;17.60
34023;BMP280;20673;48.980;8.138;2023-08-08T07:23:48;100217.79;;;17.65
34023;BMP280;20673;48.980;8.138;2023-08-08T07:26:14;100221.00;;;17.77
34023;BMP280;20673;48.980;8.138;2023-08-08T07:28:40;100219.48;;;17.92
34023;BMP280;20673;48.980;8.138;2023-08-08T07:31:07;100216.33;;;17.92
34023;BMP280;20673;48.980;8.138;2023-08-08T07:33:33;100216.08;;;18.08
34023;BMP280;20673;48.980;8.138;2023-08-08T07:35:59;100223.18;;;18.17
34023;BMP280;20673;48.980;8.138;2023-08-08T07:38:25;100220.97;;;18.24
34023;BMP280;20673;48.980;8.138;2023-08-08T07:40:51;100214.67;;;18.42
34023;BMP280;20673;48.980;8.138;2023-08-08T07:43:17;100219.39;;;18.55
34023;BMP280;20673;48.980;8.138;2023-08-08T07:45:43;100219.59;;;18.78
34023;BMP280;20673;48.980;8.138;2023-08-08T07:48:09;100220.02;;;18.72
34023;BMP280;20673;48.980;8.138;2023-08-08T07:50:35;100216.42;;;18.72
34023;BMP280;20673;48.980;8.138;2023-08-08T07:53:02;100215.82;;;18.85
34023;BMP280;20673;48.980;8.138;2023-08-08T07:55:28;100219.96;;;18.93
34023;BMP280;20673;48.980;8.138;2023-08-08T07:57:54;100215.65;;;18.91
34023;BMP280;20673;48.980;8.138;2023-08-08T08:00:20;100210.88;;;18.94
34023;BMP280;20673;48.980;8.138;2023-08-08T08:02:47;100216.26;;;19.01
34023;BMP280;20673;48.980;8.138;2023-08-08T08:05:13;100214.58;;;19.14
34023;BMP280;20673;48.980;8.138;2023-08-08T08:07:40;100213.37;;;19.25
34023;BMP280;20673;48.980;8.138;2023-08-08T08:10:10;100206.81;;;19.35
34023;BMP280;20673;48.980;8.138;2023-08-08T08:12:36;100203.83;;;19.54
34023;BMP280;20673;48.980;8.138;2023-08-08T08:15:04;100209.98;;;19.65
34023;BMP280;20673;48.980;8.138;2023-08-08T08:17:30;100205.76;;;19.86
34023;BMP280;20673;48.980;8.138;2023-08-08T08:19:56;100202.72;;;19.83
34023;BMP280;20673;48.980;8.138;2023-08-08T08:22:23;100193.84;;;19.81
34023;BMP280;20673;48.980;8.138;2023-08-08T08:24:49;100207.90;;;19.88
34023;BMP280;20673;48.980;8.138;2023-08-08T08:27:16;100196.00;;;20.02
34023;BMP280;20673;48.980;8.138;2023-08-08T08:29:43;100197.06;;;20.28
34023;BMP280;20673;48.980;8.138;2023-08-08T08:32:09;100194.12;;;20.26
34023;BMP280;20673;48.980;8.138;2023-08-08T08:34:35;100196.20;;;20.63
34023;BMP280;20673;48.980;8.138;2023-08-08T08:37:02;100196.56;;;20.57
34023;BMP280;20673;48.980;8.138;2023-08-08T08:39:28;100204.67;;;20.65
34023;BMP280;20673;48.980;8.138;2023-08-08T08:41:58;100198.35;;;20.93
34023;BMP280;20673;48.980;8.138;2023-08-08T08:44:30;100189.17;;;20.84
34023;BMP280;20673;48.980;8.138;2023-08-08T08:47:07;100190.45;;;21.02
34023;BMP280;20673;48.980;8.138;2023-08-08T08:49:38;100198.23;;;21.22
34023;BMP280;20673;48.980;8.138;2023-08-08T08:52:05;100192.16;;;21.02
34023;BMP280;20673;48.980;8.138;2023-08-08T08:54:32;100185.67;;;21.22
34023;BMP280;20673;48.980;8.138;2023-08-08T08:56:59;100180.41;;;21.13
34023;BMP280;20673;48.980;8.138;2023-08-08T08:59:25;100176.69;;;21.08
34023;BMP280;20673;48.980;8.138;2023-08-08T09:01:51;100177.31;;;20.85
34023;BMP280;20673;48.980;8.138;2023-08-08T09:04:21;100181.97;;;21.19
34023;BMP280;20673;48.980;8.138;2023-08-08T09:06:49;100182.04;;;21.30
34023;BMP280;20673;48.980;8.138;2023-08-08T09:09:17;100174.94;;;21.48
34023;BMP280;20673;48.980;8.138;2023-08-08T09:11:46;100180.68;;;21.79
34023;BMP280;20673;48.980;8.138;2023-08-08T09:14:21;100174.11;;;22.10
34023;BMP280;20673;48.980;8.138;2023-08-08T09:16:49;100162.10;;;21.81
34023;BMP280;20673;48.980;8.138;2023-08-08T09:19:17;100170.70;;;21.76
34023;BMP280;20673;48.980;8.138;2023-08-08T09:21:47;100173.14;;;21.93
34023;BMP280;20673;48.980;8.138;2023-08-08T09:24:14;100166.81;;;21.99
34023;BMP280;20673;48.980;8.138;2023-08-08T09:26:41;100171.90;;;22.22
34023;BMP280;20673;48.980;8.138;2023-08-08T09:29:08;100167.39;;;22.25
34023;BMP280;20673;48.980;8.138;2023-08-08T09:31:36;100164.22;;;22.07
34023;BMP280;20673;48.980;8.138;2023-08-08T09:34:04;100164.54;;;22.24
34023;BMP280;20673;48.980;8.138;2023-08-08T09:36:30;100149.55;;;22.43
34023;BMP280;20673;48.980;8.138;2023-08-08T09:38:57;100162.34;;;22.67
34023;BMP280;20673;48.980;8.138;2023-08-08T09:41:23;100166.09;;;22.83
34023;BMP280;20673;48.980;8.138;2023-08-08T09:43:52;100161.97;;;22.87
34023;BMP280;20673;48.980;8.138;2023-08-08T09:46:19;100161.73;;;23.13
34023;BMP280;20673;48.980;8.138;2023-08-08T09:48:46;100155.51;;;23.02
34023;BMP280;20673;48.980;8.138;2023-08-08T09:51:13;100154.40;;;22.81
34023;BMP280;20673;48.980;8.138;2023-08-08T09:53:41;100162.83;;;22.84
34023;BMP280;20673;48.980;8.138;2023-08-08T09:56:08;100168.21;;;22.67
34023;BMP280;20673;48.980;8.138;2023-08-08T09:58:34;100157.79;;;22.87
34023;BMP280;20673;48.980;8.138;2023-08-08T10:01:01;100168.79;;;22.88
34023;BMP280;20673;48.980;8.138;2023-08-08T10:03:29;100169.31;;;23.44
34023;BMP280;20673;48.980;8.138;2023-08-08T10:05:56;100169.03;;;23.16
34023;BMP280;20673;48.980;8.138;2023-08-08T10:08:22;100160.52;;;23.35
34023;BMP280;20673;48.980;8.138;2023-08-08T10:10:50;100157.36;;;23.09
34023;BMP280;20673;48.980;8.138;2023-08-08T10:13:26;100167.54;;;22.95
34023;BMP280;20673;48.980;8.138;2023-08-08T10:15:54;100170.65;;;23.03
34023;BMP280;20673;48.980;8.138;2023-08-08T10:18:24;100163.34;;;23.26
34023;BMP280;20673;48.980;8.138;2023-08-08T10:20:51;100159.90;;;23.56
34023;BMP280;20673;48.980;8.138;2023-08-08T10:23:20;100150.01;;;23.90
34023;BMP280;20673;48.980;8.138;2023-08-08T10:25:48;100141.12;;;24.12
34023;BMP280;20673;48.980;8.138;2023-08-08T10:28:19;100140.37;;;24.02
34023;BMP280;20673;48.980;8.138;2023-08-08T10:33:28;100155.33;;;23.73
34023;BMP280;20673;48.980;8.138;2023-08-08T10:36:04;100129.50;;;23.70
34023;BMP280;20673;48.980;8.138;2023-08-08T10:38:48;100149.64;;;23.76
34023;BMP280;20673;48.980;8.138;2023-08-08T10:41:21;100144.31;;;23.87
34023;BMP280;20673;48.980;8.138;2023-08-08T10:43:54;100130.50;;;24.00
34023;BMP280;20673;48.980;8.138;2023-08-08T10:46:33;100147.50;;;24.34
34023;BMP280;20673;48.980;8.138;2023-08-08T10:48:59;100140.43;;;24.37
34023;BMP280;20673;48.980;8.138;2023-08-08T10:51:40;100144.52;;;24.29
34023;BMP280;20673;48.980;8.138;2023-08-08T10:54:19;100143.14;;;24.07
34023;BMP280;20673;48.980;8.138;2023-08-08T10:56:54;100154.65;;;24.29
34023;BMP280;20673;48.980;8.138;2023-08-08T10:59:26;100140.53;;;24.44
34023;BMP280;20673;48.980;8.138;2023-08-08T11:01:53;100145.12;;;24.56
34023;BMP280;20673;48.980;8.138;2023-08-08T11:04:24;100137.86;;;24.09
34023;BMP280;20673;48.980;8.138;2023-08-08T11:06:54;100146.59;;;23.61
34023;BMP280;20673;48.980;8.138;2023-08-08T11:09:20;100140.92;;;24.46
34023;BMP280;20673;48.980;8.138;2023-08-08T11:11:47;100134.26;;;25.16
34023;BMP280;20673;48.980;8.138;2023-08-08T11:14:19;100139.42;;;24.99
34023;BMP280;20673;48.980;8.138;2023-08-08T11:16:48;100125.33;;;24.98
34023;BMP280;20673;48.980;8.138;2023-08-08T11:19:15;100137.53;;;24.97
34023;BMP280;20673;48.980;8.138;2023-08-08T11:21:47;100124.67;;;24.78
34023;BMP280;20673;48.980;8.138;2023-08-08T11:24:13;100131.40;;;25.38
34023;BMP280;20673;48.980;8.138;2023-08-08T11:26:42;100140.47;;;25.24
34023;BMP280;20673;48.980;8.138;2023-08-08T11:29:09;100129.75;;;24.88
34023;BMP280;20673;48.980;8.138;2023-08-08T11:31:36;100128.50;;;24.63
34023;BMP280;20673;48.980;8.138;2023-08-08T11:34:04;100137.64;;;24.59
34023;BMP280;20673;48.980;8.138;2023-08-08T11:36:32;100135.59;;;24.93
34023;BMP280;20673;48.980;8.138;2023-08-08T11:39:02;100116.08;;;24.80
34023;BMP280;20673;48.980;8.138;2023-08-08T11:41:30;100129.76;;;25.10
34023;BMP280;20673;48.980;8.138;2023-08-08T11:43:58;100139.60;;;24.62
34023;BMP280;20673;48.980;8.138;2023-08-08T11:46:25;100139.59;;;24.35
34023;BMP280;20673;48.980;8.138;2023-08-08T11:48:51;100128.04;;;24.32
34023;BMP280;20673;48.980;8.138;2023-08-08T11:51:18;100133.04;;;24.51
34023;BMP280;20673;48.980;8.138;2023-08-08T11:53:52;100110.75;;;24.54
34023;BMP280;20673;48.980;8.138;2023-08-08T11:56:22;100122.95;;;24.75
34023;BMP280;20673;48.980;8.138;2023-08-08T11:58:51;100122.61;;;24.97
34023;BMP280;20673;48.980;8.138;2023-08-08T12:01:26;100115.01;;;24.30
34023;BMP280;20673;48.980;8.138;2023-08-08T12:03:53;100114.10;;;25.06
34023;BMP280;20673;48.980;8.138;2023-08-08T12:06:20;100117.25;;;24.94
34023;BMP280;20673;48.980;8.138;2023-08-08T12:08:47;100111.45;;;25.36
34023;BMP280;20673;48.980;8.138;2023-08-08T12:11:15;100103.05;;;25.39
34023;BMP280;20673;48.980;8.138;2023-08-08T12:13:43;100102.45;;;25.28
34023;BMP280;20673;48.980;8.138;2023-08-08T12:16:13;100103.96;;;25.44
34023;BMP280;20673;48.980;8.138;2023-08-08T12:18:40;100108.11;;;25.66
34023;BMP280;20673;48.980;8.138;2023-08-08T12:21:08;100099.31;;;25.96
34023;BMP280;20673;48.980;8.138;2023-08-08T12:23:36;100076.98;;;25.17
34023;BMP280;20673;48.980;8.138;2023-08-08T12:26:04;100100.81;;;25.20
34023;BMP280;20673;48.980;8.138;2023-08-08T12:28:34;100090.04;;;25.23
34023;BMP280;20673;48.980;8.138;2023-08-08T12:31:01;100093.47;;;25.29
34023;BMP280;20673;48.980;8.138;2023-08-08T12:33:27;100083.43;;;25.59
34023;BMP280;20673;48.980;8.138;2023-08-08T12:35:53;100061.75;;;25.40
34023;BMP280;20673;48.980;8.138;2023-08-08T12:38:19;100079.09;;;25.84
34023;BMP280;20673;48.980;8.138;2023-08-08T12:40:45;100078.63;;;25.51
34023;BMP280;20673;48.980;8.138;2023-08-08T12:43:12;100079.79;;;25.72
34023;BMP280;20673;48.980;8.138;2023-08-08T12:45:45;100063.01;;;25.34
34023;BMP280;20673;48.980;8.138;2023-08-08T12:48:12;100063.00;;;25.00
34023;BMP280;20673;48.980;8.138;2023-08-08T12:50:38;100067.83;;;24.69
34023;BMP280;20673;48.980;8.138;2023-08-08T12:53:05;100070.78;;;25.15
34023;BMP280;20673;48.980;8.138;2023-08-08T12:55:31;100064.29;;;24.50
34023;BMP280;20673;48.980;8.138;2023-08-08T12:57:57;100060.34;;;24.54
34023;BMP280;20673;48.980;8.138;2023-08-08T13:00:23;100057.20;;;24.16
34023;BMP280;20673;48.980;8.138;2023-08-08T13:02:49;100056.49;;;24.92
34023;BMP280;20673;48.980;8.138;2023-08-08T13:05:15;100079.14;;;25.36
34023;BMP280;20673;48.980;8.138;2023-08-08T13:07:42;100066.28;;;25.21
34023;BMP280;20673;48.980;8.138;2023-08-08T13:10:08;100064.40;;;25.21
34023;BMP280;20673;48.980;8.138;2023-08-08T13:12:36;100049.31;;;24.90
34023;BMP280;20673;48.980;8.138;2023-08-08T13:15:03;100049.37;;;25.35
34023;BMP280;20673;48.980;8.138;2023-08-08T13:17:30;100064.01;;;25.56
34023;BMP280;20673;48.980;8.138;2023-08-08T13:19:57;100057.90;;;26.03
34023;BMP280;20673;48.980;8.138;2023-08-08T13:22:23;100071.49;;;26.02
34023;BMP280;20673;48.980;8.138;2023-08-08T13:24:49;100056.76;;;25.68
34023;BMP280;20673;48.980;8.138;2023-08-08T13:27:15;100052.34;;;25.79
34023;BMP280;20673;48.980;8.138;2023-08-08T13:29:41;100058.31;;;26.05
34023;BMP280;20673;48.980;8.138;2023-08-08T13:32:08;100058.50;;;26.57
34023;BMP280;20673;48.980;8.138;2023-08-08T13:34:34;100052.68;;;26.47
34023;BMP280;20673;48.980;8.138;2023-08-08T13:37:00;100054.31;;;26.22
34023;BMP280;20673;48.980;8.138;2023-08-08T13:39:27;100066.11;;;25.73
34023;BMP280;20673;48.980;8.138;2023-08-08T13:41:53;100063.12;;;25.36
34023;BMP280;20673;48.980;8.138;2023-08-08T13:44:19;100050.98;;;25.04
34023;BMP280;20673;48.980;8.138;2023-08-08T13:46:46;100059.32;;;25.30
34023;BMP280;20673;48.980;8.138;2023-08-08T13:49:12;100047.73;;;25.35
34023;BMP280;20673;48.980;8.138;2023-08-08T13:51:38;100039.05;;;25.26
34023;BMP280;20673;48.980;8.138;2023-08-08T13:54:04;100037.99;;;25.61
34023;BMP280;20673;48.980;8.138;2023-08-08T13:56:30;100047.61;;;25.69
34023;BMP280;20673;48.980;8.138;2023-08-08T13:58:56;100043.52;;;26.01
34023;BMP280;20673;48.980;8.138;2023-08-08T14:01:23;100032.85;;;25.93